Time;durP1;ratioP1;P1;durP2;ratioP2;P2;SDS_P1;SDS_P2;PMS_P1;PMS_P2;Temp;Humidity;BMP_temperature;BMP_pressure;BME280_temperature;BME280_humidity;BME280_pressure;Samples;Min_cycle;Max_cycle;Signal;HPM_P1;HPM_P2
2024/01/24 00:00:25;;;;;;;22.30;2.85;;;;;;;2.60;100.00;99503.28;5059285;28;20027;-71
2024/01/24 00:02:51;;;;;;;24.20;3.72;;;;;;;2.50;100.00;99494.75;5057991;28;20067;-71
2024/01/24 00:05:16;;;;;;;25.10;3.03;;;;;;;2.48;100.00;99478.97;5074447;28;20040;-71
2024/01/24 00:07:44;;;;;;;23.13;2.83;;;;;;;2.39;100.00;99444.75;5077032;28;20170;-71
2024/01/24 00:10:11;;;;;;;27.42;3.35;;;;;;;2.44;100.00;99467.06;5074246;28;20123;-71
2024/01/24 00:12:36;;;;;;;24.00;3.28;;;;;;;2.39;100.00;99432.28;5076309;28;20025;-71
2024/01/24 00:15:02;;;;;;;16.38;2.65;;;;;;;2.26;100.00;99371.03;5057284;28;20170;-71
2024/01/24 00:17:28;;;;;;;11.13;2.33;;;;;;;2.26;100.00;99336.53;5074178;28;20115;-71
2024/01/24 00:19:53;;;;;;;16.20;2.30;;;;;;;2.41;100.00;99358.59;5058708;28;20568;-71
2024/01/24 00:22:18;;;;;;;22.88;2.63;;;;;;;2.47;100.00;99365.00;5076478;28;20025;-71
2024/01/24 00:24:44;;;;;;;14.25;2.03;;;;;;;2.51;100.00;99353.00;5076013;28;20031;-71
2024/01/24 00:27:11;;;;;;;11.95;1.88;;;;;;;2.57;100.00;99323.88;5076948;28;20029;-70
2024/01/24 00:29:36;;;;;;;16.20;2.20;;;;;;;2.59;100.00;99315.75;5077896;28;20028;-71
2024/01/24 00:32:03;;;;;;;21.77;2.28;;;;;;;2.65;100.00;99301.75;5075516;28;20032;-72
2024/01/24 00:34:29;;;;;;;10.77;1.88;;;;;;;2.56;100.00;99269.16;5085394;28;20017;-70
2024/01/24 00:36:55;;;;;;;8.73;1.48;;;;;;;2.79;100.00;99270.84;5074110;28;20056;-71
2024/01/24 00:39:20;;;;;;;11.27;1.42;;;;;;;2.72;100.00;99225.63;5073542;28;20471;-71
2024/01/24 00:41:46;;;;;;;6.72;1.48;;;;;;;2.90;100.00;99242.97;5075494;28;20067;-71
2024/01/24 00:44:12;;;;;;;11.50;2.28;;;;;;;2.96;100.00;99231.59;5073923;28;20025;-71
2024/01/24 00:46:39;;;;;;;10.15;1.73;;;;;;;2.98;100.00;99219.78;5057906;28;20078;-71
2024/01/24 00:49:09;;;;;;;15.52;1.85;;;;;;;3.02;100.00;99215.72;5073806;28;20028;-71
2024/01/24 00:51:35;;;;;;;9.68;2.10;;;;;;;3.10;100.00;99211.28;5074619;28;20028;-71
2024/01/24 00:54:00;;;;;;;15.50;2.47;;;;;;;3.12;100.00;99203.97;5075766;28;20063;-71
2024/01/24 00:56:25;;;;;;;20.73;3.00;;;;;;;2.99;100.00;99176.25;5074150;28;20360;-71
2024/01/24 00:58:52;;;;;;;13.80;1.90;;;;;;;3.04;100.00;99181.78;5074877;28;20060;-71
2024/01/24 01:01:19;;;;;;;15.68;2.70;;;;;;;3.12;100.00;99169.41;5073286;28;20036;-70
2024/01/24 01:03:44;;;;;;;16.20;2.40;;;;;;;3.12;100.00;99162.25;5075616;28;20036;-71
2024/01/24 01:06:10;;;;;;;22.58;3.13;;;;;;;3.08;100.00;99145.06;5077168;28;20024;-71
2024/01/24 01:08:38;;;;;;;14.35;2.55;;;;;;;2.96;100.00;99128.78;5075078;28;20032;-70
2024/01/24 01:11:05;;;;;;;12.45;1.85;;;;;;;3.07;100.00;99103.53;5074783;28;20118;-71
2024/01/24 01:13:33;;;;;;;12.65;2.10;;;;;;;3.10;100.00;99127.06;5075574;28;20099;-70
2024/01/24 01:15:58;;;;;;;19.17;2.08;;;;;;;3.01;100.00;99096.31;5074462;28;20450;-71
2024/01/24 01:18:23;;;;;;;9.38;1.55;;;;;;;2.96;100.00;99078.31;5075563;28;20032;-71
2024/01/24 01:20:49;;;;;;;17.10;2.15;;;;;;;3.09;100.00;99098.88;5059067;28;20028;-71
2024/01/24 01:23:14;;;;;;;13.73;1.73;;;;;;;2.92;100.00;99071.75;5057415;28;20048;-71
2024/01/24 01:25:40;;;;;;;16.27;2.00;;;;;;;3.11;100.00;99088.03;5058131;28;20036;-71
2024/01/24 01:28:05;;;;;;;24.40;2.40;;;;;;;3.09;100.00;99082.09;5083180;28;20068;-71
2024/01/24 01:30:31;;;;;;;18.98;2.35;;;;;;;3.08;100.00;99073.31;5075984;28;20024;-71
2024/01/24 01:32:56;;;;;;;22.85;2.83;;;;;;;3.07;100.00;99053.03;5079994;28;20043;-71
2024/01/24 01:35:21;;;;;;;20.48;2.55;;;;;;;3.03;100.00;99033.19;5075098;28;20542;-71
2024/01/24 01:37:47;;;;;;;24.75;2.85;;;;;;;3.01;100.00;99027.25;5073389;28;20512;-70
2024/01/24 01:40:13;;;;;;;20.95;2.20;;;;;;;3.04;100.00;99016.22;5073501;28;20063;-71
2024/01/24 01:42:44;;;;;;;11.45;1.50;;;;;;;3.01;100.00;98990.03;5072927;28;20047;-71
2024/01/24 01:45:09;;;;;;;14.77;2.30;;;;;;;3.01;100.00;98984.72;5056417;28;20115;-70
2024/01/24 01:47:35;;;;;;;18.05;2.17;;;;;;;3.03;100.00;98980.88;5074913;28;20052;-71
2024/01/24 01:50:03;;;;;;;15.23;2.03;;;;;;;3.01;100.00;98976.75;5075308;28;20058;-70
2024/01/24 01:52:30;;;;;;;18.05;2.83;;;;;;;2.81;100.00;98911.06;5074130;28;20035;-71
2024/01/24 01:54:56;;;;;;;18.92;1.92;;;;;;;2.99;100.00;98915.88;5073066;28;20039;-71
2024/01/24 01:57:22;;;;;;;19.05;2.33;;;;;;;3.01;100.00;98950.19;5056840;28;20029;-73
2024/01/24 01:59:48;;;;;;;13.52;2.03;;;;;;;3.02;100.00;98928.75;5055656;28;20032;-71
2024/01/24 02:02:14;;;;;;;17.65;2.40;;;;;;;2.91;100.00;98891.28;5072165;28;20036;-70
2024/01/24 02:04:39;;;;;;;15.68;2.10;;;;;;;3.08;100.00;98926.31;5071751;28;20032;-71
2024/01/24 02:07:05;;;;;;;16.25;2.30;;;;;;;3.13;100.00;98927.38;5071832;28;20032;-70
2024/01/24 02:09:30;;;;;;;19.98;2.63;;;;;;;3.18;100.00;98909.00;5071711;28;20085;-70
2024/01/24 02:11:55;;;;;;;18.38;2.53;;;;;;;3.19;100.00;98907.16;5074734;28;20085;-71
2024/01/24 02:14:21;;;;;;;18.10;2.17;;;;;;;3.21;100.00;98874.06;5074341;28;20102;-71
2024/01/24 02:16:46;;;;;;;18.38;2.47;;;;;;;3.22;100.00;98865.06;5072931;28;20549;-70
2024/01/24 02:19:12;;;;;;;23.08;2.60;;;;;;;3.21;100.00;98874.06;5073166;28;20023;-71
2024/01/24 02:21:37;;;;;;;15.90;2.47;;;;;;;3.22;100.00;98854.44;5039536;28;20024;-71
2024/01/24 02:24:07;;;;;;;16.55;1.98;;;;;;;3.27;100.00;98848.50;5090548;28;20076;-71
2024/01/24 02:26:33;;;;;;;20.70;2.13;;;;;;;3.36;100.00;98846.50;5082001;28;20123;-71
2024/01/24 02:28:59;;;;;;;10.73;1.67;;;;;;;3.43;100.00;98852.66;5075724;28;20064;-71
2024/01/24 02:31:25;;;;;;;21.02;2.38;;;;;;;3.48;100.00;98852.88;5056175;28;20035;-72
2024/01/24 02:33:50;;;;;;;22.20;2.45;;;;;;;3.50;100.00;98819.72;5054793;28;20036;-71
2024/01/24 02:36:16;;;;;;;18.85;2.15;;;;;;;3.51;100.00;98808.09;5071835;28;20110;-70
2024/01/24 02:38:41;;;;;;;21.75;2.53;;;;;;;3.40;100.00;98781.25;5054324;28;20064;-70
2024/01/24 02:41:07;;;;;;;28.75;2.88;;;;;;;3.58;100.00;98794.81;5072518;28;20038;-70
2024/01/24 02:43:33;;;;;;;21.70;2.22;;;;;;;3.63;100.00;98787.00;5055454;28;20024;-71
2024/01/24 02:46:00;;;;;;;28.98;3.08;;;;;;;3.68;100.00;98773.94;5072522;28;20103;-71
2024/01/24 02:48:26;;;;;;;26.92;2.53;;;;;;;3.71;100.00;98760.22;5073234;28;20036;-71
2024/01/24 02:50:51;;;;;;;22.42;2.78;;;;;;;3.80;100.00;98762.66;5073220;28;20058;-70
2024/01/24 02:53:17;;;;;;;27.00;2.83;;;;;;;3.85;100.00;98760.22;5071414;28;20036;-71
2024/01/24 02:55:42;;;;;;;24.00;2.92;;;;;;;3.88;100.00;98763.28;5071705;28;20039;-71
2024/01/24 02:58:07;;;;;;;22.30;2.92;;;;;;;3.89;100.00;98758.78;5054029;28;20040;-70
2024/01/24 03:00:33;;;;;;;31.77;3.00;;;;;;;3.88;100.00;98744.66;5072082;28;20099;-71
2024/01/24 03:02:58;;;;;;;27.23;3.20;;;;;;;3.96;100.00;98747.09;5054934;28;20479;-70
2024/01/24 03:05:24;;;;;;;30.67;3.72;;;;;;;4.00;100.00;98743.00;5073401;28;20080;-70
2024/01/24 03:07:49;;;;;;;32.47;3.63;;;;;;;4.03;100.00;98733.78;5072885;28;20039;-70
2024/01/24 03:10:34;;;;;;;39.42;3.58;;;;;;;4.08;100.00;98731.34;5072348;28;20044;-71
2024/01/24 03:13:00;;;;;;;36.55;3.90;;;;;;;4.10;100.00;98728.44;5054541;28;20079;-71
2024/01/24 03:15:25;;;;;;;42.08;4.05;;;;;;;4.12;100.00;98721.91;5058017;28;20036;-71
2024/01/24 03:17:51;;;;;;;33.28;3.83;;;;;;;4.13;100.00;98707.56;5087753;28;20025;-70
2024/01/24 03:20:17;;;;;;;32.75;3.90;;;;;;;4.15;100.00;98700.19;5080177;28;20039;-70
2024/01/24 03:22:43;;;;;;;31.13;3.40;;;;;;;4.19;100.00;98701.41;5083807;28;20062;-70
2024/01/24 03:25:12;;;;;;;29.38;3.42;;;;;;;4.23;100.00;98694.63;5060192;28;20036;-71
2024/01/24 03:27:38;;;;;;;27.50;3.10;;;;;;;4.33;100.00;98685.38;5075970;28;20078;-71
2024/01/24 03:30:04;;;;;;;29.92;3.05;;;;;;;4.38;100.00;98682.91;5076094;28;20024;-70
2024/01/24 03:32:30;;;;;;;29.73;3.35;;;;;;;4.40;100.00;98679.03;5078199;28;20111;-71
2024/01/24 03:34:57;;;;;;;23.80;3.03;;;;;;;4.41;100.00;98677.19;5076596;28;20085;-70
2024/01/24 03:37:22;;;;;;;26.48;2.80;;;;;;;4.48;100.00;98673.44;5077066;28;20087;-71
2024/01/24 03:39:47;;;;;;;22.33;2.67;;;;;;;4.54;100.00;98674.44;5076154;28;20513;-71
2024/01/24 03:42:13;;;;;;;39.30;3.42;;;;;;;4.58;100.00;98666.84;5073974;28;20053;-70
2024/01/24 03:44:40;;;;;;;29.85;3.17;;;;;;;4.58;100.00;98662.34;5075390;28;20045;-71
2024/01/24 03:47:06;;;;;;;30.92;2.95;;;;;;;4.60;100.00;98662.94;5076569;28;20036;-71
2024/01/24 03:49:31;;;;;;;27.13;3.00;;;;;;;4.63;100.00;98667.00;5075071;28;20041;-70
2024/01/24 03:51:57;;;;;;;31.88;3.15;;;;;;;4.66;100.00;98659.41;5074578;28;20039;-71
2024/01/24 03:54:22;;;;;;;26.70;2.97;;;;;;;4.74;100.00;98660.22;5074576;28;20025;-71
2024/01/24 03:56:48;;;;;;;30.85;3.53;;;;;;;4.80;100.00;98659.34;5074251;28;20028;-70
2024/01/24 03:59:14;;;;;;;28.00;3.47;;;;;;;4.87;100.00;98662.81;5057768;28;20044;-70
2024/01/24 04:01:40;;;;;;;36.10;3.90;;;;;;;4.82;100.00;98647.44;5076109;28;20104;-70
2024/01/24 04:04:05;;;;;;;35.28;3.60;;;;;;;4.94;100.00;98660.91;5074984;28;20494;-72
2024/01/24 04:06:30;;;;;;;39.90;4.70;;;;;;;4.95;100.00;98662.53;5076082;28;20033;-70
2024/01/24 04:08:56;;;;;;;22.70;3.75;;;;;;;5.10;100.00;98664.88;5076266;28;20029;-71
2024/01/24 04:11:21;;;;;;;39.97;4.32;;;;;;;5.14;100.00;98660.75;5079490;28;20366;-71
2024/01/24 04:13:53;;;;;;;35.42;4.30;;;;;;;5.18;100.00;98651.28;5094299;28;20025;-72
2024/01/24 04:16:19;;;;;;;41.97;4.63;;;;;;;5.24;100.00;98653.09;5083710;28;20044;-71
2024/01/24 04:18:45;;;;;;;37.25;4.60;;;;;;;5.26;100.00;98642.19;5081177;28;20474;-71
2024/01/24 04:21:10;;;;;;;45.30;5.43;;;;;;;5.32;100.00;98646.66;5076006;28;20024;-71
2024/01/24 04:23:35;;;;;;;45.35;4.45;;;;;;;5.19;100.00;98620.91;5074289;28;20029;-70
2024/01/24 04:26:04;;;;;;;46.72;5.47;;;;;;;5.31;100.00;98631.72;5074221;28;20423;-71
2024/01/24 04:28:33;;;;;;;40.55;5.15;;;;;;;5.24;100.00;98626.44;5073953;28;20020;-70
2024/01/24 04:31:17;;;;;;;45.80;5.63;;;;;;;5.27;100.00;98630.53;5085104;28;20036;-71
2024/01/24 04:33:42;;;;;;;37.15;5.55;;;;;;;5.22;100.00;98635.69;5082262;28;20108;-71
2024/01/24 04:36:09;;;;;;;37.05;5.22;;;;;;;5.25;100.00;98637.91;5073656;28;20083;-71
2024/01/24 04:38:38;;;;;;;37.78;5.10;;;;;;;5.26;100.00;98620.88;5073440;28;20028;-70
2024/01/24 04:41:03;;;;;;;37.20;5.45;;;;;;;5.13;100.00;98608.47;5075073;28;20040;-70
2024/01/24 04:43:30;;;;;;;45.17;5.60;;;;;;;5.27;100.00;98622.53;5057749;28;20017;-71
2024/01/24 04:45:57;;;;;;;46.53;4.97;;;;;;;5.28;100.00;98611.63;5075877;28;20033;-71
2024/01/24 04:48:23;;;;;;;36.30;5.05;;;;;;;5.29;100.00;98625.75;5091823;28;20483;-71
2024/01/24 04:50:48;;;;;;;44.50;5.50;;;;;;;5.31;100.00;98613.84;5057130;28;20043;-71
2024/01/24 04:53:13;;;;;;;51.35;5.55;;;;;;;5.34;100.00;98618.75;5073256;28;20032;-71
2024/01/24 04:55:39;;;;;;;50.10;5.47;;;;;;;5.38;100.00;98614.59;5073483;28;20031;-72
2024/01/24 04:58:05;;;;;;;50.75;5.82;;;;;;;5.29;100.00;98597.25;5057228;28;20418;-71
2024/01/24 05:00:31;;;;;;;56.33;7.00;;;;;;;5.37;100.00;98588.16;5074382;28;20020;-70
2024/01/24 05:02:58;;;;;;;56.90;6.70;;;;;;;5.39;100.00;98597.56;5041521;28;20077;-71
2024/01/24 05:05:23;;;;;;;60.58;6.53;;;;;;;5.39;100.00;98602.91;5091953;28;20044;-71
2024/01/24 05:07:49;;;;;;;64.55;6.90;;;;;;;5.49;100.00;98612.25;5076975;28;20123;-71
2024/01/24 05:10:14;;;;;;;64.47;7.20;;;;;;;5.55;100.00;98606.84;5102710;28;20035;-70
2024/01/24 05:12:40;;;;;;;66.97;7.95;;;;;;;5.60;100.00;98611.53;5077253;28;20032;-71
2024/01/24 05:15:08;;;;;;;74.45;8.18;;;;;;;5.64;100.00;98607.38;5072846;28;20028;-71
2024/01/24 05:17:33;;;;;;;67.07;8.50;;;;;;;5.63;100.00;98606.56;5073662;28;20078;-71
2024/01/24 05:19:59;;;;;;;74.07;8.70;;;;;;;5.57;100.00;98591.44;5057721;28;20032;-71
2024/01/24 05:22:24;;;;;;;69.97;9.02;;;;;;;5.72;100.00;98609.75;5073979;28;20033;-71
2024/01/24 05:24:50;;;;;;;88.00;9.15;;;;;;;5.62;100.00;98586.25;5089758;28;20394;-71
2024/01/24 05:27:16;;;;;;;70.80;8.45;;;;;;;5.76;100.00;98608.31;5073451;28;20020;-71
2024/01/24 05:29:41;;;;;;;65.03;8.95;;;;;;;5.79;100.00;98612.34;5072586;28;20033;-71
2024/01/24 05:32:07;;;;;;;73.15;9.18;;;;;;;5.78;100.00;98608.06;5089167;28;20090;-72
2024/01/24 05:34:32;;;;;;;76.15;9.18;;;;;;;5.79;100.00;98607.81;5072304;28;20565;-72
2024/01/24 05:36:57;;;;;;;66.72;8.57;;;;;;;5.78;100.00;98598.19;5071098;28;20048;-72
2024/01/24 05:39:23;;;;;;;75.40;8.90;;;;;;;5.82;100.00;98601.25;5073751;28;20552;-72
2024/01/24 05:41:48;;;;;;;77.97;9.07;;;;;;;5.83;100.00;98600.22;5074712;28;20047;-71
2024/01/24 05:44:14;;;;;;;79.65;9.90;;;;;;;5.81;100.00;98592.41;5072436;28;20043;-71
2024/01/24 05:46:58;;;;;;;80.55;10.45;;;;;;;5.80;100.00;98603.31;5073210;28;20478;-72
2024/01/24 05:49:24;;;;;;;82.60;8.97;;;;;;;5.80;100.00;98608.66;5074157;28;20036;-71
2024/01/24 05:51:50;;;;;;;86.28;9.65;;;;;;;5.48;100.00;98546.63;5090199;28;20273;-72
2024/01/24 05:54:15;;;;;;;82.57;9.38;;;;;;;5.82;100.00;98599.38;5073370;28;20032;-71
2024/01/24 05:56:42;;;;;;;70.78;8.90;;;;;;;5.84;100.00;98597.31;5089539;28;20433;-72
2024/01/24 05:59:08;;;;;;;82.20;9.18;;;;;;;5.71;100.00;98577.97;5056368;28;20047;-72
2024/01/24 06:01:33;;;;;;;69.85;9.05;;;;;;;5.86;100.00;98600.59;5069650;28;20025;-71
2024/01/24 06:03:59;;;;;;;79.70;8.68;;;;;;;5.87;100.00;98604.06;5088813;28;20041;-72
2024/01/24 06:06:24;;;;;;;76.07;8.80;;;;;;;5.86;100.00;98605.09;5096554;28;20115;-71
2024/01/24 06:08:49;;;;;;;77.38;9.50;;;;;;;5.88;100.00;98595.81;5056913;28;20012;-71
2024/01/24 06:11:16;;;;;;;71.55;10.00;;;;;;;5.89;100.00;98597.47;5054570;28;20276;-71
2024/01/24 06:13:41;;;;;;;78.60;8.60;;;;;;;5.89;100.00;98604.66;5072611;28;20066;-71
2024/01/24 06:16:06;;;;;;;71.35;8.52;;;;;;;5.89;100.00;98597.47;5070564;28;20025;-71
2024/01/24 06:18:32;;;;;;;73.05;10.15;;;;;;;5.83;100.00;98595.69;5071244;28;20221;-71
2024/01/24 06:20:57;;;;;;;71.75;8.88;;;;;;;5.84;100.00;98591.97;5070982;28;20024;-71
2024/01/24 06:23:23;;;;;;;73.07;9.15;;;;;;;5.68;100.00;98571.22;5073078;28;20037;-71
2024/01/24 06:25:48;;;;;;;70.93;8.38;;;;;;;5.70;100.00;98574.50;5073062;28;20394;-71
2024/01/24 06:28:13;;;;;;;63.95;7.93;;;;;;;5.83;100.00;98601.03;5073097;28;20036;-71
2024/01/24 06:30:39;;;;;;;63.13;8.38;;;;;;;5.81;100.00;98591.59;5071793;28;20040;-71
2024/01/24 06:33:04;;;;;;;65.97;8.75;;;;;;;5.62;100.00;98566.75;5071008;28;20417;-72
2024/01/24 06:35:31;;;;;;;65.82;8.55;;;;;;;5.82;100.00;98603.91;5086795;28;20471;-71
2024/01/24 06:37:56;;;;;;;78.55;9.63;;;;;;;5.82;100.00;98598.56;5054837;28;20132;-71
2024/01/24 06:40:22;;;;;;;72.07;9.20;;;;;;;5.85;100.00;98601.59;5071761;28;20025;-72
2024/01/24 06:42:47;;;;;;;82.03;10.45;;;;;;;5.78;100.00;98584.84;5073078;28;20032;-72
2024/01/24 06:45:13;;;;;;;83.10;10.23;;;;;;;5.88;100.00;98605.69;5073725;28;20509;-71
2024/01/24 06:47:39;;;;;;;74.85;10.30;;;;;;;5.72;100.00;98584.94;5073054;28;20122;-72
2024/01/24 06:50:12;;;;;;;75.70;9.52;;;;;;;5.93;100.00;98605.88;5076168;28;20028;-72
2024/01/24 06:52:38;;;;;;;71.72;9.38;;;;;;;5.90;100.00;98600.94;5076728;28;20371;-71
2024/01/24 06:55:04;;;;;;;86.13;10.90;;;;;;;5.92;100.00;98604.19;5094065;28;20040;-71
2024/01/24 06:57:29;;;;;;;87.78;10.40;;;;;;;5.93;100.00;98595.22;5093981;28;20024;-71
2024/01/24 06:59:55;;;;;;;84.45;10.60;;;;;;;5.91;100.00;98589.22;5068610;28;20056;-72
2024/01/24 07:02:20;;;;;;;88.03;10.23;;;;;;;5.99;100.00;98599.63;5062277;28;20376;-72
2024/01/24 07:04:45;;;;;;;78.57;11.38;;;;;;;6.01;100.00;98608.25;5076971;28;20052;-71
2024/01/24 07:07:11;;;;;;;85.78;10.60;;;;;;;5.99;100.00;98593.47;5041992;28;20027;-71
2024/01/24 07:09:37;;;;;;;102.68;12.05;;;;;;;6.07;100.00;98611.88;5075047;28;20494;-72
2024/01/24 07:12:03;;;;;;;84.85;10.48;;;;;;;5.97;100.00;98580.38;5076934;28;20020;-71
2024/01/24 07:14:28;;;;;;;88.20;11.98;;;;;;;6.06;100.00;98602.22;5077753;28;20206;-74
2024/01/24 07:16:54;;;;;;;80.75;10.73;;;;;;;6.00;100.00;98611.16;5077931;28;20587;-72
2024/01/24 07:19:19;;;;;;;98.00;12.18;;;;;;;6.02;100.00;98609.84;5058294;28;20036;-71
2024/01/24 07:21:51;;;;;;;96.43;10.80;;;;;;;6.04;100.00;98602.44;5059075;28;20494;-71
2024/01/24 07:24:16;;;;;;;101.50;13.10;;;;;;;6.06;100.00;98615.56;5091311;28;20086;-70
2024/01/24 07:26:43;;;;;;;97.22;11.70;;;;;;;6.04;100.00;98613.13;5092339;28;20029;-72
2024/01/24 07:29:10;;;;;;;107.60;13.00;;;;;;;6.07;100.00;98599.34;5073160;28;20051;-72
2024/01/24 07:31:36;;;;;;;102.95;12.93;;;;;;;6.06;100.00;98616.41;5057522;28;20528;-72
2024/01/24 07:34:01;;;;;;;104.93;12.52;;;;;;;5.84;100.00;98570.63;5057289;28;20052;-72
2024/01/24 07:36:27;;;;;;;104.70;13.48;;;;;;;5.83;100.00;98573.53;5057736;28;20185;-73
2024/01/24 07:38:53;;;;;;;108.32;12.85;;;;;;;6.05;100.00;98603.25;5041451;28;20494;-72
2024/01/24 07:41:36;;;;;;;109.63;14.13;;;;;;;6.00;100.00;98598.59;5057727;28;20085;-72
2024/01/24 07:44:03;;;;;;;100.78;12.55;;;;;;;6.02;100.00;98601.03;5058003;28;20029;-72
2024/01/24 07:46:29;;;;;;;98.75;12.23;;;;;;;6.04;100.00;98596.31;5057281;28;20041;-72
2024/01/24 07:48:55;;;;;;;102.53;12.57;;;;;;;6.05;100.00;98597.94;5057713;28;20151;-72
2024/01/24 07:51:20;;;;;;;101.60;13.77;;;;;;;5.89;100.00;98578.78;5071465;28;20088;-72
2024/01/24 07:53:47;;;;;;;108.47;13.88;;;;;;;5.87;100.00;98569.38;5074292;28;20032;-72
2024/01/24 07:56:14;;;;;;;109.35;14.63;;;;;;;5.89;100.00;98577.94;5059430;28;20548;-72
2024/01/24 07:58:40;;;;;;;99.50;13.23;;;;;;;6.03;100.00;98610.69;5058602;28;20032;-72
2024/01/24 08:01:08;;;;;;;99.43;12.40;;;;;;;6.03;100.00;98603.50;5054981;28;20447;-73
2024/01/24 08:03:33;;;;;;;102.40;12.40;;;;;;;5.95;100.00;98587.78;5074303;28;20517;-73
2024/01/24 08:05:59;;;;;;;122.60;15.13;;;;;;;6.04;100.00;98602.44;5075095;28;20032;-71
2024/01/24 08:08:24;;;;;;;105.85;14.07;;;;;;;6.04;100.00;98606.97;5057784;28;20501;-72
2024/01/24 08:10:51;;;;;;;107.03;14.18;;;;;;;6.02;100.00;98604.53;5076095;28;20029;-71
2024/01/24 08:13:16;;;;;;;104.63;13.93;;;;;;;6.05;100.00;98606.75;5071019;28;20040;-72
2024/01/24 08:15:42;;;;;;;107.72;13.55;;;;;;;6.07;100.00;98612.69;5077126;28;20040;-72
2024/01/24 08:18:07;;;;;;;97.40;13.80;;;;;;;6.07;100.00;98606.53;5057883;28;20398;-72
2024/01/24 08:20:33;;;;;;;117.97;14.05;;;;;;;6.06;100.00;98611.06;5076083;28;20063;-73
2024/01/24 08:23:00;;;;;;;93.10;12.82;;;;;;;6.13;100.00;98607.50;5074822;28;20119;-72
2024/01/24 08:25:26;;;;;;;109.13;13.25;;;;;;;6.08;100.00;98592.94;5042802;28;20056;-73
2024/01/24 08:27:53;;;;;;;93.70;13.02;;;;;;;5.95;100.00;98577.09;5057906;28;20028;-73
2024/01/24 08:30:20;;;;;;;92.07;12.10;;;;;;;6.15;100.00;98592.06;5076787;28;20021;-73
2024/01/24 08:32:46;;;;;;;83.63;12.68;;;;;;;6.09;100.00;98597.28;5057961;28;20553;-73
2024/01/24 08:35:12;;;;;;;90.40;13.48;;;;;;;6.17;100.00;98601.47;5074886;28;20060;-73
2024/01/24 08:37:38;;;;;;;98.47;13.55;;;;;;;6.19;100.00;98593.22;5076102;28;20020;-72
2024/01/24 08:40:05;;;;;;;91.50;13.65;;;;;;;6.00;100.00;98571.09;5075137;28;20021;-72
2024/01/24 08:42:32;;;;;;;81.53;12.30;;;;;;;6.24;100.00;98601.41;5092173;28;20108;-72
2024/01/24 08:44:57;;;;;;;113.88;14.50;;;;;;;6.25;100.00;98598.50;5080994;28;20036;-73
2024/01/24 08:47:24;;;;;;;92.07;12.93;;;;;;;6.24;100.00;98591.53;5094067;28;20020;-70
2024/01/24 08:49:50;;;;;;;96.85;13.23;;;;;;;6.13;100.00;98568.25;5062025;28;20036;-72
2024/01/24 08:52:16;;;;;;;88.28;11.85;;;;;;;6.31;100.00;98602.94;5075938;28;20028;-71
2024/01/24 08:54:44;;;;;;;90.25;12.82;;;;;;;6.36;100.00;98602.28;5073977;28;20108;-73
2024/01/24 08:57:10;;;;;;;91.28;13.93;;;;;;;6.38;100.00;98608.19;5073641;28;20552;-72
2024/01/24 08:59:38;;;;;;;90.13;13.32;;;;;;;6.39;100.00;98609.84;5071940;28;20017;-72
2024/01/24 09:02:07;;;;;;;87.10;13.15;;;;;;;6.32;100.00;98603.75;5076293;28;20036;-72
2024/01/24 09:04:32;;;;;;;103.35;13.27;;;;;;;6.35;100.00;98611.31;5075358;28;20021;-72
2024/01/24 09:06:58;;;;;;;111.03;14.23;;;;;;;6.23;100.00;98600.59;5072781;28;20024;-71
2024/01/24 09:09:25;;;;;;;104.03;14.27;;;;;;;6.27;100.00;98612.44;5074668;28;20118;-72
2024/01/24 09:11:51;;;;;;;89.72;12.82;;;;;;;6.31;100.00;98618.16;5073786;28;20032;-72
2024/01/24 09:14:16;;;;;;;94.03;13.10;;;;;;;6.34;100.00;98612.34;5056760;28;20040;-72
2024/01/24 09:16:42;;;;;;;88.10;13.35;;;;;;;6.36;100.00;98623.66;5057042;28;20115;-72
2024/01/24 09:19:27;;;;;;;98.53;12.65;;;;;;;6.38;100.00;98623.41;5073257;28;20111;-72
2024/01/24 09:21:52;;;;;;;95.30;13.25;;;;;;;6.40;100.00;98627.50;5055781;28;20521;-72
2024/01/24 09:24:18;;;;;;;87.05;12.50;;;;;;;6.39;100.00;98635.72;5072818;28;20024;-72
2024/01/24 09:26:45;;;;;;;97.40;12.75;;;;;;;6.40;100.00;98632.03;5057744;28;20029;-72
2024/01/24 09:32:33;;;;;;;96.38;13.20;;;;;;;6.41;100.00;98618.41;5076058;28;20074;-73
2024/01/24 09:34:59;;;;;;;86.00;12.32;;;;;;;6.45;100.00;98619.59;5058253;28;20037;-72
2024/01/24 09:37:24;;;;;;;95.82;13.63;;;;;;;6.46;100.00;98633.78;5073940;28;20047;-72
2024/01/24 09:39:49;;;;;;;85.90;12.27;;;;;;;6.46;100.00;98637.28;5082778;28;20052;-72
2024/01/24 09:42:27;;;;;;;88.93;12.52;;;;;;;6.42;100.00;98633.41;5074911;28;20043;-73
2024/01/24 09:44:57;;;;;;;88.72;13.05;;;;;;;6.45;100.00;98638.28;5076371;28;20084;-72
2024/01/24 09:47:24;;;;;;;87.57;12.98;;;;;;;6.47;100.00;98635.41;5091092;28;20021;-72
2024/01/24 09:49:50;;;;;;;97.97;14.00;;;;;;;6.48;100.00;98640.53;5071731;28;20404;-72
2024/01/24 09:52:24;;;;;;;90.40;12.70;;;;;;;6.33;100.00;98606.22;5073322;28;20028;-72
2024/01/24 09:54:53;;;;;;;86.30;13.13;;;;;;;6.54;100.00;98644.97;5041067;28;20436;-72
2024/01/24 09:57:21;;;;;;;82.90;12.05;;;;;;;6.58;100.00;98648.81;5089832;28;20028;-72
2024/01/24 09:59:47;;;;;;;92.40;12.80;;;;;;;6.64;100.00;98646.28;5055875;28;20541;-72
2024/01/24 10:02:13;;;;;;;80.50;12.95;;;;;;;6.70;100.00;98653.41;5054763;28;20056;-72
2024/01/24 10:04:40;;;;;;;86.43;12.38;;;;;;;6.69;100.00;98647.25;5079245;28;20052;-72
2024/01/24 10:07:10;;;;;;;91.53;13.00;;;;;;;6.72;100.00;98646.78;5057624;28;20032;-72
2024/01/24 10:09:36;;;;;;;88.60;12.60;;;;;;;6.77;100.00;98649.59;5039078;28;20032;-73
2024/01/24 10:12:05;;;;;;;83.30;11.60;;;;;;;6.63;100.00;98621.44;5073570;28;20036;-72
2024/01/24 10:14:32;;;;;;;74.28;11.77;;;;;;;6.81;100.00;98649.94;5072121;28;20035;-72
2024/01/24 10:16:58;;;;;;;88.88;14.38;;;;;;;6.82;100.00;98644.38;5056718;28;20033;-72
2024/01/24 10:19:24;;;;;;;71.88;11.40;;;;;;;6.83;100.00;98654.03;5072677;28;20031;-73
2024/01/24 10:21:51;;;;;;;78.93;12.25;;;;;;;6.86;100.00;98647.41;5073372;28;20028;-72
2024/01/24 10:24:16;;;;;;;86.70;12.88;;;;;;;6.86;100.00;98650.09;5071816;28;20746;-72
2024/01/24 10:26:44;;;;;;;74.65;11.73;;;;;;;6.64;100.00;98619.56;5072431;28;20028;-72
2024/01/24 10:29:11;;;;;;;92.70;13.27;;;;;;;6.87;100.00;98640.22;5088204;28;20036;-72
2024/01/24 10:31:37;;;;;;;94.72;12.40;;;;;;;6.87;100.00;98646.38;5071594;28;20520;-72
2024/01/24 10:34:06;;;;;;;77.63;12.43;;;;;;;6.89;100.00;98641.63;5062557;28;20080;-72
2024/01/24 10:36:32;;;;;;;87.63;12.90;;;;;;;6.87;100.00;98643.69;5085232;28;20052;-72
2024/01/24 10:39:03;;;;;;;83.40;12.95;;;;;;;6.88;100.00;98648.00;5077134;28;20059;-72
2024/01/24 10:41:31;;;;;;;84.00;12.07;;;;;;;6.88;100.00;98655.19;5089654;28;20389;-72
2024/01/24 10:44:02;;;;;;;84.07;12.90;;;;;;;6.63;100.00;98621.44;5074116;28;20025;-72
2024/01/24 10:46:28;;;;;;;68.28;11.43;;;;;;;6.81;100.00;98644.59;5074178;28;20037;-73
2024/01/24 10:48:54;;;;;;;89.82;12.80;;;;;;;6.77;100.00;98648.78;5073104;28;20027;-72
2024/01/24 10:51:21;;;;;;;88.60;14.13;;;;;;;6.75;100.00;98648.19;5072231;28;20035;-72
2024/01/24 10:53:49;;;;;;;83.45;12.43;;;;;;;6.78;100.00;98643.19;5077035;28;20430;-72
2024/01/24 10:56:16;;;;;;;84.63;11.60;;;;;;;6.78;100.00;98637.03;5061361;28;20041;-72
2024/01/24 10:58:42;;;;;;;82.63;11.82;;;;;;;6.76;100.00;98641.81;5055462;28;20482;-73
2024/01/24 11:01:09;;;;;;;94.85;12.77;;;;;;;6.76;100.00;98641.81;5072510;28;20090;-73
2024/01/24 11:03:34;;;;;;;69.75;11.52;;;;;;;6.86;100.00;98636.72;5072125;28;20039;-72
2024/01/24 11:06:08;;;;;;;71.20;10.48;;;;;;;6.71;100.00;98605.06;5053305;28;20024;-73
2024/01/24 11:08:45;;;;;;;77.15;11.20;;;;;;;6.89;100.00;98635.44;5071084;28;20069;-73
2024/01/24 11:11:14;;;;;;;72.57;10.68;;;;;;;6.94;100.00;98624.88;5071986;28;20025;-73
2024/01/24 11:13:42;;;;;;;74.88;11.85;;;;;;;6.92;100.00;98632.31;5071101;28;20024;-73
2024/01/24 11:19:32;;;;;;;76.65;11.32;;;;;;;7.02;100.00;98621.91;5073664;28;20123;-72
2024/01/24 11:22:04;;;;;;;72.45;11.90;;;;;;;7.02;100.00;98603.97;5072410;28;20063;-72
2024/01/24 11:24:44;;;;;;;73.15;11.27;;;;;;;6.92;100.00;98613.59;5055288;28;20016;-72